KOZS Airport (Camdenton Memorial-Lake Rgnl) Information

FAA: OZS - ICAO: KOZS

KOZS Airport Location

State Missouri
County Camden
City Camdenton
KOZS Airport is 3 miles southeast of Camdenton, MO.
Latitude 37-58-26.3000N
Longitude 092-41-28.3000W
Elevation 1,061ft

KOZS Airport METARs

METAR KOZS 180715Z AUTO 19005KT 10SM CLR 12/05 A3016 RMK AO2
Altimeter 30.16"
Temperature 12.0°C (53.6°F)
Wind 190° at 5KT
Clouds Skies are clear.
Visibility 10.0mi
Time observed: 2021-10-18T07:15:00Z

KOZS Airport Details

Status Operational
Activation December 1946
Ownership Public
Usage Public
Chart KANSAS CITY
ATC on-site No
Beacon schedule sunset-sunrise
Beacon color clear green

KOZS Airport Contacts

Owner CITY OF CAMDENTON
Owner address 437 W US HWY 54, CAMDENTON, MO 65020
Owner phone 573-346-3600
Manager CAMRON MCAHREN
Manager address 802 AIRPORT AVE., SPRINGDALE, AR 72764
Manager phone 479-236-1109

KOZS Airport (Camdenton Memorial-Lake Rgnl) Radio Frequencies

KOZS (Airport) Radio Frequencies

UNICOM 122.8
Common traffic advisory frequency (CTAF) 122.8